createdAt,value
2023-03-21T00:01:03.237Z,82.77
2023-03-21T00:06:11.302Z,82.54
2023-03-21T00:11:17.185Z,82.67
2023-03-21T00:16:30.555Z,82.38
2023-03-21T00:22:05.424Z,82.49
2023-03-21T00:26:39.370Z,82.44
2023-03-21T00:31:45.046Z,82.03
2023-03-21T00:36:50.931Z,82.37
2023-03-21T00:41:56.434Z,82.44
2023-03-21T00:47:07.794Z,82.41
2023-03-21T00:52:20.136Z,82.25
2023-03-21T00:57:22.124Z,82.30
2023-03-21T01:02:27.637Z,82.04
2023-03-21T01:07:34.904Z,82.12
2023-03-21T01:12:40.310Z,82.15
2023-03-21T01:17:45.714Z,81.84
2023-03-21T01:22:51.412Z,81.77
2023-03-21T01:27:56.957Z,82.11
2023-03-21T01:33:03.195Z,82.27
2023-03-21T01:38:10.220Z,82.15
2023-03-21T01:43:23.019Z,82.07
2023-03-21T01:48:30.101Z,82.22
2023-03-21T01:53:39.735Z,81.97
2023-03-21T01:58:48.001Z,82.22
2023-03-21T02:04:04.133Z,81.98
2023-03-21T02:09:14.328Z,82.11
2023-03-21T02:14:28.919Z,82.31
2023-03-21T02:19:47.623Z,82.36
2023-03-21T02:25:04.300Z,82.43
2023-03-21T02:30:49.250Z,82.38
2023-03-21T02:36:03.127Z,82.42
2023-03-21T02:41:18.049Z,82.71
2023-03-21T02:46:18.177Z,82.59
2023-03-21T02:51:27.521Z,82.52
2023-03-21T02:56:34.402Z,82.84
2023-03-21T03:01:40.845Z,82.69
2023-03-21T03:07:01.935Z,83.03
2023-03-21T03:12:11.281Z,82.76
2023-03-21T03:17:27.951Z,82.90
2023-03-21T03:22:47.270Z,82.66
2023-03-21T03:27:56.200Z,82.48
2023-03-21T03:33:04.287Z,82.46
2023-03-21T03:38:11.879Z,82.44
2023-03-21T03:43:29.513Z,81.99
2023-03-21T03:48:38.428Z,82.03
2023-03-21T03:53:52.846Z,82.21
2023-03-21T03:58:59.319Z,82.12
2023-03-21T04:04:13.203Z,82.23
2023-03-21T04:09:21.016Z,82.20
2023-03-21T04:14:25.560Z,82.14
2023-03-21T04:19:31.415Z,82.31
2023-03-21T04:24:37.622Z,82.22
2023-03-21T04:29:43.833Z,82.53
2023-03-21T04:34:52.736Z,82.65
2023-03-21T04:39:58.676Z,82.50
2023-03-21T04:45:05.695Z,82.72
2023-03-21T04:50:13.795Z,82.73
2023-03-21T04:55:20.960Z,82.27
2023-03-21T05:00:27.305Z,82.18
2023-03-21T05:05:32.851Z,82.15
2023-03-21T05:10:38.450Z,82.37
2023-03-21T05:15:44.054Z,82.36
2023-03-21T05:20:51.424Z,81.88
2023-03-21T05:25:57.160Z,82.18
2023-03-21T05:31:05.771Z,81.79
2023-03-21T05:36:12.716Z,82.00
2023-03-21T05:41:21.549Z,82.15
2023-03-21T05:46:27.211Z,82.13
2023-03-21T05:51:33.535Z,82.47
2023-03-21T05:56:39.511Z,82.44
2023-03-21T06:01:47.079Z,82.06
2023-03-21T06:06:53.733Z,82.24
2023-03-21T06:12:00.308Z,82.19
2023-03-21T06:17:10.587Z,82.22
2023-03-21T06:22:17.956Z,82.30
2023-03-21T06:27:24.657Z,82.38
2023-03-21T06:32:33.532Z,82.30
2023-03-21T06:37:40.757Z,82.09
2023-03-21T06:42:47.546Z,82.00
2023-03-21T06:47:53.474Z,82.63
2023-03-21T06:53:03.365Z,82.19
2023-03-21T06:58:10.594Z,82.40
2023-03-21T07:03:17.009Z,82.53
2023-03-21T07:08:23.750Z,82.02
2023-03-21T07:13:29.462Z,81.86
2023-03-21T07:18:37.073Z,82.09
2023-03-21T07:23:42.664Z,82.44
2023-03-21T07:28:48.228Z,81.59
2023-03-21T07:33:54.357Z,81.81
2023-03-21T07:39:00.422Z,82.19
2023-03-21T07:49:13.272Z,81.36
2023-03-21T07:54:20.406Z,81.11
2023-03-21T07:59:26.162Z,80.19
2023-03-21T08:04:32.398Z,80.40
2023-03-21T08:09:38.356Z,80.16
2023-03-21T08:14:44.626Z,79.76
2023-03-21T08:19:50.394Z,80.24
2023-03-21T08:24:55.976Z,79.27
2023-03-21T08:30:02.722Z,78.14
2023-03-21T08:35:10.493Z,77.36
2023-03-21T08:40:18.736Z,77.86
2023-03-21T08:45:25.399Z,77.01
2023-03-21T08:50:31.870Z,76.89
2023-03-21T08:55:38.111Z,75.82
2023-03-21T09:00:43.779Z,75.23
2023-03-21T09:05:50.148Z,75.15
2023-03-21T09:10:56.354Z,74.74
2023-03-21T09:16:02.893Z,72.04
2023-03-21T09:21:12.316Z,72.18
2023-03-21T09:26:18.503Z,72.61
2023-03-21T09:31:25.060Z,71.76
2023-03-21T09:36:32.561Z,72.93
2023-03-21T09:41:58.926Z,71.97
2023-03-21T09:47:30.097Z,71.32
2023-03-21T09:52:51.974Z,70.10
2023-03-21T09:58:20.318Z,70.09
2023-03-21T10:03:28.408Z,69.38
2023-03-21T10:08:42.177Z,68.24
2023-03-21T10:13:56.327Z,67.72
2023-03-21T10:19:05.273Z,68.79
2023-03-21T10:24:21.944Z,67.85
2023-03-21T10:29:30.540Z,67.73
2023-03-21T10:34:42.189Z,67.08
2023-03-21T10:39:50.576Z,66.44
2023-03-21T10:44:57.664Z,67.11
2023-03-21T10:50:08.424Z,66.86
2023-03-21T10:55:31.338Z,67.33
2023-03-21T11:00:40.160Z,67.51
2023-03-21T11:05:46.401Z,66.68
2023-03-21T11:11:04.097Z,66.71
2023-03-21T11:16:21.637Z,66.62
2023-03-21T11:21:29.617Z,66.38
2023-03-21T11:26:38.811Z,65.59
2023-03-21T11:31:45.135Z,65.83
2023-03-21T11:36:52.376Z,65.94
2023-03-21T11:41:58.041Z,66.13
2023-03-21T11:47:03.733Z,65.05
2023-03-21T11:52:23.642Z,65.02
2023-03-21T11:57:41.079Z,65.52
2023-03-21T12:03:13.965Z,64.10
2023-03-21T12:08:24.960Z,63.64
2023-03-21T12:13:49.847Z,63.91
2023-03-21T12:19:22.441Z,64.75
2023-03-21T12:24:58.863Z,63.77
2023-03-21T12:30:25.439Z,62.45
2023-03-21T12:35:52.215Z,63.08
2023-03-21T12:41:04.143Z,63.16
2023-03-21T12:46:23.610Z,62.81
2023-03-21T12:51:34.970Z,63.08
2023-03-21T12:56:43.615Z,63.45
2023-03-21T13:01:52.058Z,64.02
2023-03-21T13:06:59.829Z,63.78
2023-03-21T13:12:14.464Z,63.84
2023-03-21T13:17:26.068Z,64.02
2023-03-21T13:22:33.084Z,64.39
2023-03-21T13:27:40.056Z,64.18
2023-03-21T13:32:48.253Z,64.67
2023-03-21T13:38:05.605Z,64.67
2023-03-21T13:43:30.844Z,63.93
2023-03-21T13:48:57.899Z,64.68
2023-03-21T13:54:10.339Z,64.60
2023-03-21T13:59:18.815Z,65.22
2023-03-21T14:04:32.225Z,64.92
2023-03-21T14:09:46.633Z,65.56
2023-03-21T14:14:56.380Z,65.59
2023-03-21T14:20:12.543Z,66.01
2023-03-21T14:25:21.149Z,65.75
2023-03-21T14:30:29.830Z,65.46
2023-03-21T14:35:37.060Z,65.47
2023-03-21T14:40:46.278Z,65.53
2023-03-21T14:45:54.927Z,65.18
2023-03-21T14:51:04.116Z,65.36
2023-03-21T14:56:12.745Z,64.45
2023-03-21T15:01:34.988Z,65.65
2023-03-21T15:06:49.625Z,64.68
2023-03-21T15:11:56.486Z,64.10
2023-03-21T15:17:05.563Z,64.99
2023-03-21T15:22:32.106Z,64.31
2023-03-21T15:27:40.995Z,64.23
2023-03-21T15:32:47.445Z,64.32
2023-03-21T15:37:59.135Z,64.28
2023-03-21T15:43:19.871Z,63.75
2023-03-21T15:48:28.467Z,63.90
2023-03-21T15:53:37.216Z,64.19
2023-03-21T15:58:46.304Z,64.46
2023-03-21T16:04:01.924Z,64.66
2023-03-21T16:09:14.312Z,64.67
2023-03-21T16:14:21.677Z,65.04
2023-03-21T16:19:28.740Z,65.39
2023-03-21T16:24:34.209Z,65.86
2023-03-21T16:29:39.643Z,65.39
2023-03-21T16:34:46.514Z,65.58
2023-03-21T16:39:52.064Z,65.96
2023-03-21T16:44:57.832Z,66.31
2023-03-21T16:50:03.507Z,66.42
2023-03-21T16:55:09.329Z,66.58
2023-03-21T17:00:19.810Z,66.75
2023-03-21T17:05:27.969Z,66.96
2023-03-21T17:10:34.250Z,67.54
2023-03-21T17:15:41.547Z,67.86
2023-03-21T17:20:47.018Z,67.86
2023-03-21T17:25:52.577Z,67.92
2023-03-21T17:30:58.014Z,68.35
2023-03-21T17:36:03.600Z,68.55
2023-03-21T17:41:12.229Z,68.88
2023-03-21T17:46:21.155Z,69.14
2023-03-21T17:51:28.359Z,69.56
2023-03-21T17:56:37.580Z,69.40
2023-03-21T18:01:43.223Z,69.80
2023-03-21T18:06:48.902Z,69.71
2023-03-21T18:11:54.373Z,70.08
2023-03-21T18:17:00.186Z,70.24
2023-03-21T18:22:06.306Z,70.44
2023-03-21T18:27:12.426Z,70.56
2023-03-21T18:32:17.973Z,71.05
2023-03-21T18:37:24.575Z,71.11
2023-03-21T18:42:31.102Z,71.66
2023-03-21T18:47:37.598Z,72.29
2023-03-21T18:52:43.863Z,74.29
2023-03-21T18:57:49.361Z,73.10
2023-03-21T19:03:12.956Z,73.40
2023-03-21T19:08:04.343Z,74.09
2023-03-21T19:13:09.893Z,74.84
2023-03-21T19:18:37.762Z,74.58
2023-03-21T19:23:23.146Z,75.30
2023-03-21T19:28:28.624Z,75.62
2023-03-21T19:33:34.744Z,76.28
2023-03-21T19:38:40.766Z,76.87
2023-03-21T19:43:54.300Z,77.02
2023-03-21T19:48:56.577Z,77.34
2023-03-21T19:54:06.168Z,77.63
2023-03-21T19:59:12.209Z,77.75
2023-03-21T20:04:18.087Z,77.62
2023-03-21T20:09:50.842Z,78.01
2023-03-21T20:14:31.470Z,78.14
2023-03-21T20:19:36.885Z,78.14
2023-03-21T20:24:43.246Z,78.32
2023-03-21T20:30:08.705Z,78.20
2023-03-21T20:35:07.984Z,78.28
2023-03-21T20:40:04.908Z,78.37
2023-03-21T20:45:15.312Z,78.19
2023-03-21T20:50:22.127Z,78.51
2023-03-21T20:55:29.571Z,78.31
2023-03-21T21:00:35.165Z,78.36
2023-03-21T21:05:42.671Z,78.42
2023-03-21T21:11:30.233Z,78.52
2023-03-21T21:15:58.441Z,78.84
2023-03-21T21:21:06.764Z,78.91
2023-03-21T21:26:13.071Z,79.02
2023-03-21T21:31:20.008Z,79.53
2023-03-21T21:36:26.067Z,79.54
2023-03-21T21:41:31.609Z,80.13
2023-03-21T21:46:38.252Z,80.43
2023-03-21T21:51:47.279Z,80.42
2023-03-21T21:56:54.379Z,81.02
2023-03-21T22:02:00.135Z,80.98
2023-03-21T22:07:06.246Z,81.04
2023-03-21T22:12:11.918Z,81.57
2023-03-21T22:17:17.487Z,81.97
2023-03-21T22:22:23.045Z,82.13
2023-03-21T22:27:28.446Z,82.53
2023-03-21T22:32:38.553Z,82.49
2023-03-21T22:37:44.504Z,82.72
2023-03-21T22:42:49.902Z,83.18
2023-03-21T22:47:55.505Z,82.78
2023-03-21T22:53:01.109Z,83.13
2023-03-21T22:58:07.053Z,83.39
2023-03-21T23:03:14.700Z,83.78
2023-03-21T23:08:20.179Z,84.10
2023-03-21T23:13:26.832Z,84.83
2023-03-21T23:18:32.620Z,84.07
2023-03-21T23:23:43.923Z,84.51
2023-03-21T23:28:49.881Z,84.60
2023-03-21T23:33:55.913Z,84.61
2023-03-21T23:39:01.419Z,85.31
2023-03-21T23:44:07.220Z,85.41
2023-03-21T23:49:12.641Z,85.73
2023-03-21T23:54:18.047Z,85.85
2023-03-21T23:59:23.655Z,86.50
